This is the latest recevied weather packets stored in our database for station/object K7DC. If no packets are shown the sender has not sent any weather packets the latest 1 day(s).
| Time | Temp. | Humidity | Pressure | Rain* | Wind** | Luminosity | Snow |
|---|---|---|---|---|---|---|---|
| 1777999761 | 20° C | 63% | 1013.1 hPa | 0 mm | 0.89 m/s, 57° | 874 W/m² | - |
| 1777999459 | 20.56° C | 62% | 1013.1 hPa | 0 mm | 1.79 m/s, 40° | 843 W/m² | - |
| 1777999156 | 19.44° C | 65% | 1013.1 hPa | 0 mm | 0.45 m/s, 5° | 216 W/m² | - |
| 1777998855 | 19.44° C | 65% | 1013.1 hPa | 0 mm | 1.34 m/s, 53° | 519 W/m² | - |
| 1777998554 | 20° C | 64% | 1013 hPa | 0 mm | 1.79 m/s, 36° | 389 W/m² | - |
| 1777998249 | 20° C | 68% | 1013.2 hPa | 0 mm | 0.45 m/s, 14° | 382 W/m² | - |
| 1777997947 | 20.56° C | 63% | 1013.2 hPa | 0 mm | 1.79 m/s, 50° | 347 W/m² | - |
| 1777997643 | 20° C | 67% | 1012.9 hPa | 0 mm | 0 m/s | 679 W/m² | - |
| 1777997340 | 19.44° C | 68% | 1013.1 hPa | 0 mm | 0.89 m/s, 336° | 884 W/m² | - |
| 1777997039 | 18.33° C | 73% | 1013.3 hPa | 0 mm | 0 m/s | 389 W/m² | - |
| 1777996735 | 17.78° C | 75% | 1013.2 hPa | 0 mm | 0.45 m/s, 343° | 312 W/m² | - |
| 1777996431 | 17.22° C | 77% | 1012.9 hPa | 0 mm | 0 m/s | 236 W/m² | - |
| 1777996128 | 17.22° C | 77% | 1013 hPa | 0 mm | 0.89 m/s, 38° | 150 W/m² | - |
| 1777995824 | 17.22° C | 80% | 1013.2 hPa | 0 mm | 0 m/s | 124 W/m² | - |
| 1777995520 | 16.67° C | 81% | 1013.1 hPa | 0 mm | 0 m/s | 121 W/m² | - |
| 1777995217 | 16.67° C | 80% | 1013 hPa | 0 mm | 0 m/s | 100 W/m² | - |
| 1777994915 | 16.67° C | 79% | 1013.1 hPa | 0 mm | 0.45 m/s, 51° | 100 W/m² | - |
| 1777994612 | 16.67° C | 80% | 1013 hPa | 0 mm | 0 m/s | 88 W/m² | - |
| 1777994311 | 17.22° C | 78% | 1013.1 hPa | 0 mm | 0.89 m/s, 37° | 119 W/m² | - |
| 1777994008 | 17.22° C | 77% | 1013.2 hPa | 0 mm | 0 m/s | 118 W/m² | - |
| 1777993706 | 16.67° C | 77% | 1013 hPa | 0 mm | 0.45 m/s, 116° | 144 W/m² | - |
| 1777993403 | 16.67° C | 79% | 1013 hPa | 0 mm | 0.45 m/s, 115° | 203 W/m² | - |
| 1777993103 | 16.11° C | 79% | 1012.9 hPa | 0 mm | 0.45 m/s, 166° | 181 W/m² | - |
| 1777992802 | 16.11° C | 82% | 1013 hPa | 0 mm | 0 m/s | 151 W/m² | - |
| 1777992499 | 15.56° C | 82% | 1013 hPa | 0 mm | 0.89 m/s, 192° | 148 W/m² | - |
* Rain latest hour (hover to see other rain measurements)
** Current wind speed in m/s (hover to see current wind gust speed)